Time;durP1;ratioP1;P1;durP2;ratioP2;P2;SDS_P1;SDS_P2;PMS_P1;PMS_P2;Temp;Humidity;BMP_temperature;BMP_pressure;BME280_temperature;BME280_humidity;BME280_pressure;Samples;Min_cycle;Max_cycle;Signal;HPM_P1;HPM_P2
2022/06/26 00:02:25;;;;;;;13.82;10.05;;;;;;;18.36;100.00;101061.72;5072046;28;20032;-53
2022/06/26 00:04:53;;;;;;;15.43;11.60;;;;;;;18.31;100.00;101063.16;5072129;28;20106;-54
2022/06/26 00:07:21;;;;;;;13.02;10.32;;;;;;;18.20;100.00;101065.03;5072470;28;20127;-53
2022/06/26 00:09:50;;;;;;;16.02;11.23;;;;;;;18.23;100.00;101063.91;5072318;28;20041;-54
2022/06/26 00:12:18;;;;;;;14.23;10.75;;;;;;;18.32;100.00;101068.31;5072185;28;20446;-53
2022/06/26 00:14:46;;;;;;;14.98;11.25;;;;;;;18.35;100.00;101067.19;5072702;28;20365;-52
2022/06/26 00:17:15;;;;;;;14.13;11.52;;;;;;;18.34;100.00;101076.19;5072212;28;20507;-51
2022/06/26 00:19:44;;;;;;;14.93;11.38;;;;;;;18.31;100.00;101061.34;5072149;28;20135;-44
2022/06/26 00:22:12;;;;;;;15.57;10.90;;;;;;;18.34;100.00;101068.19;5068653;28;20048;-50
2022/06/26 00:24:41;;;;;;;15.20;11.75;;;;;;;18.30;100.00;101072.97;5067966;28;20079;-49
2022/06/26 00:27:09;;;;;;;15.40;11.52;;;;;;;18.30;100.00;101077.47;5071706;28;20048;-53
2022/06/26 00:29:40;;;;;;;14.05;11.38;;;;;;;18.29;100.00;101076.59;5068553;28;20412;-52
2022/06/26 00:32:09;;;;;;;15.07;11.45;;;;;;;18.36;100.00;101074.22;5069958;28;20045;-49
2022/06/26 00:34:38;;;;;;;13.45;11.60;;;;;;;18.42;100.00;101085.13;5071984;28;20049;-51
2022/06/26 00:37:06;;;;;;;13.68;11.52;;;;;;;18.31;100.00;101097.75;5072106;28;20369;-50
2022/06/26 00:39:34;;;;;;;13.98;11.20;;;;;;;18.37;100.00;101098.03;5071741;28;20063;-47
2022/06/26 00:42:03;;;;;;;15.80;12.07;;;;;;;18.31;100.00;101089.78;5072022;28;20395;-47
2022/06/26 00:44:31;;;;;;;16.95;12.40;;;;;;;18.26;100.00;101084.06;5071685;28;20044;-51
2022/06/26 00:46:59;;;;;;;20.52;12.93;;;;;;;18.23;100.00;101090.50;5072096;28;20056;-52
2022/06/26 00:49:28;;;;;;;15.45;12.77;;;;;;;18.17;100.00;101094.56;5071947;28;20040;-51
2022/06/26 00:51:58;;;;;;;15.90;12.70;;;;;;;18.16;100.00;101087.59;5071671;28;20048;-49
2022/06/26 00:54:29;;;;;;;16.15;13.05;;;;;;;18.10;100.00;101095.31;5071890;28;20203;-48
2022/06/26 00:56:58;;;;;;;16.80;13.60;;;;;;;17.97;100.00;101098.25;5072026;28;20052;-49
2022/06/26 00:59:27;;;;;;;16.23;13.48;;;;;;;18.04;100.00;101099.38;5071864;28;20049;-49
2022/06/26 01:01:56;;;;;;;18.48;12.93;;;;;;;18.09;100.00;101097.09;5071747;28;20045;-50
2022/06/26 01:04:24;;;;;;;17.02;13.98;;;;;;;18.11;100.00;101097.81;5071787;28;20091;-48
2022/06/26 01:06:52;;;;;;;16.85;13.23;;;;;;;18.15;100.00;101095.72;5071819;28;20048;-51
2022/06/26 01:09:22;;;;;;;15.13;13.15;;;;;;;18.16;100.00;101089.38;5071956;28;20048;-51
2022/06/26 01:11:50;;;;;;;15.82;12.90;;;;;;;18.13;100.00;101092.34;5070020;28;20044;-49
2022/06/26 01:14:19;;;;;;;14.13;12.50;;;;;;;18.14;100.00;101097.50;5068192;28;20052;-52
2022/06/26 01:16:47;;;;;;;14.80;13.25;;;;;;;18.12;100.00;101080.88;5070722;28;20507;-49
2022/06/26 01:19:17;;;;;;;15.65;13.00;;;;;;;18.04;100.00;101092.22;5071756;28;20044;-48
2022/06/26 01:21:46;;;;;;;16.70;12.98;;;;;;;18.00;100.00;101090.00;5071770;28;20048;-47
2022/06/26 01:24:15;;;;;;;15.50;12.80;;;;;;;18.01;100.00;101100.50;5071933;28;20048;-52
2022/06/26 01:26:43;;;;;;;14.27;11.95;;;;;;;18.06;100.00;101100.91;5071508;28;20460;-53
2022/06/26 01:29:11;;;;;;;16.15;12.65;;;;;;;18.06;100.00;101100.91;5071483;28;20055;-50
2022/06/26 01:31:39;;;;;;;14.50;11.75;;;;;;;18.08;100.00;101101.59;5071314;28;20067;-49
2022/06/26 01:34:09;;;;;;;17.02;12.45;;;;;;;18.04;100.00;101102.88;5071424;28;20540;-53
2022/06/26 01:36:38;;;;;;;14.00;12.20;;;;;;;18.01;100.00;101104.97;5071334;28;20052;-53
2022/06/26 01:39:06;;;;;;;15.43;12.38;;;;;;;18.02;100.00;101107.47;5074731;28;20056;-50
2022/06/26 01:41:36;;;;;;;14.90;12.35;;;;;;;18.05;100.00;101112.53;5074991;28;20060;-53
2022/06/26 01:44:07;;;;;;;16.48;14.65;;;;;;;18.07;100.00;101101.75;5074851;28;20057;-52
2022/06/26 01:46:35;;;;;;;18.00;14.68;;;;;;;18.08;100.00;101108.75;5074984;28;20518;-55
2022/06/26 01:49:04;;;;;;;21.17;15.30;;;;;;;18.02;100.00;101112.78;5074837;28;20040;-52
2022/06/26 01:51:32;;;;;;;17.98;15.07;;;;;;;18.05;100.00;101112.53;5074652;28;20094;-54
2022/06/26 01:54:00;;;;;;;19.92;15.50;;;;;;;18.06;100.00;101119.53;5071466;28;20098;-50
2022/06/26 01:56:28;;;;;;;17.50;15.55;;;;;;;18.02;100.00;101115.47;5068086;28;20052;-53
2022/06/26 01:58:58;;;;;;;16.92;14.65;;;;;;;18.17;100.00;101115.03;5075007;28;20064;-54
2022/06/26 02:01:28;;;;;;;18.20;16.20;;;;;;;18.17;100.00;101112.38;5075126;28;20056;-53
2022/06/26 02:03:56;;;;;;;19.98;16.10;;;;;;;18.08;100.00;101119.41;5074912;28;20049;-51
2022/06/26 02:06:24;;;;;;;21.65;16.17;;;;;;;17.96;100.00;101123.19;5074532;28;20044;-53
2022/06/26 02:08:52;;;;;;;17.45;14.57;;;;;;;17.96;100.00;101124.03;5074311;28;20052;-53
2022/06/26 02:14:09;;;;;;;18.15;15.52;;;;;;;17.97;100.00;101123.03;5074233;28;20045;-49
2022/06/26 02:16:37;;;;;;;17.42;14.05;;;;;;;18.02;100.00;101111.97;5074366;28;20066;-50
2022/06/26 02:19:05;;;;;;;17.25;14.43;;;;;;;17.94;100.00;101110.00;5072970;28;20049;-50
2022/06/26 02:21:35;;;;;;;18.25;13.93;;;;;;;17.98;100.00;101116.72;5073983;28;20117;-54
2022/06/26 02:24:04;;;;;;;16.30;13.98;;;;;;;17.89;100.00;101118.38;5070821;28;20052;-51
2022/06/26 02:26:32;;;;;;;15.43;13.30;;;;;;;17.83;100.00;101123.44;5069652;28;20037;-51
2022/06/26 02:29:00;;;;;;;16.25;14.20;;;;;;;17.86;100.00;101110.69;5073525;28;20044;-49
2022/06/26 02:31:30;;;;;;;15.98;13.75;;;;;;;17.82;100.00;101108.44;5073464;28;20361;-50
2022/06/26 02:33:58;;;;;;;16.35;13.88;;;;;;;17.77;100.00;101113.38;5073836;28;20041;-53
2022/06/26 02:36:26;;;;;;;14.95;13.35;;;;;;;17.73;100.00;101100.34;5073942;28;20576;-49
2022/06/26 02:38:54;;;;;;;17.35;14.18;;;;;;;17.61;100.00;101106.78;5072584;28;20044;-49
2022/06/26 02:41:22;;;;;;;15.38;13.15;;;;;;;17.66;100.00;101101.06;5068689;28;20101;-52
2022/06/26 02:43:50;;;;;;;15.45;12.93;;;;;;;17.65;100.00;101094.88;5071175;28;20052;-52
2022/06/26 02:46:18;;;;;;;15.40;12.93;;;;;;;17.70;100.00;101091.81;5073845;28;20453;-51
2022/06/26 02:48:48;;;;;;;16.45;12.18;;;;;;;17.71;100.00;101093.47;5071735;28;20827;-53
2022/06/26 02:51:16;;;;;;;15.90;12.38;;;;;;;17.69;100.00;101090.94;5070134;28;20056;-53
2022/06/26 02:53:47;;;;;;;14.05;12.38;;;;;;;17.61;100.00;101088.16;5071477;28;20037;-50
2022/06/26 02:56:15;;;;;;;16.92;12.52;;;;;;;17.58;100.00;101099.09;5069922;28;20051;-54
2022/06/26 02:58:43;;;;;;;16.85;12.98;;;;;;;17.44;100.00;101102.13;5070174;28;20523;-49
2022/06/26 03:01:12;;;;;;;16.45;12.60;;;;;;;17.45;100.00;101098.50;5072398;28;20075;-53
2022/06/26 03:03:40;;;;;;;19.30;13.40;;;;;;;17.34;100.00;101103.00;5072852;28;20036;-52
2022/06/26 03:06:09;;;;;;;15.02;12.63;;;;;;;17.36;100.00;101101.03;5072969;28;20458;-50
2022/06/26 03:08:37;;;;;;;15.43;13.13;;;;;;;17.34;100.00;101108.31;5071063;28;20087;-50
2022/06/26 03:11:05;;;;;;;16.23;13.85;;;;;;;17.39;100.00;101110.53;5067705;28;20052;-47
2022/06/26 03:13:34;;;;;;;15.65;13.95;;;;;;;17.45;100.00;101119.78;5072071;28;20455;-51
2022/06/26 03:16:05;;;;;;;17.15;14.77;;;;;;;17.45;100.00;101125.94;5072990;28;20057;-50
2022/06/26 03:18:33;;;;;;;17.38;14.32;;;;;;;17.51;100.00;101130.69;5072874;28;20040;-47
2022/06/26 03:21:00;;;;;;;17.70;13.88;;;;;;;17.49;100.00;101131.81;5070876;28;20086;-49
2022/06/26 03:26:13;;;;;;;16.92;13.80;;;;;;;17.36;100.00;101145.38;5071328;28;20098;-50
2022/06/26 03:28:41;;;;;;;19.08;14.70;;;;;;;17.40;100.00;101146.78;5072656;28;20495;-53
2022/06/26 03:31:09;;;;;;;18.17;14.35;;;;;;;17.42;100.00;101162.59;5072925;28;20059;-46
2022/06/26 03:33:37;;;;;;;18.80;14.77;;;;;;;17.38;100.00;101159.34;5071588;28;20070;-51
2022/06/26 03:36:08;;;;;;;18.02;15.10;;;;;;;17.30;100.00;101168.03;5072655;28;20041;-54
2022/06/26 03:38:38;;;;;;;18.67;15.40;;;;;;;17.30;100.00;101167.19;5069262;28;20048;-54
2022/06/26 03:41:06;;;;;;;18.25;14.38;;;;;;;17.31;100.00;101168.88;5066791;28;20049;-53
2022/06/26 03:43:34;;;;;;;20.83;15.48;;;;;;;17.35;100.00;101165.78;5071860;28;20548;-51
2022/06/26 03:46:03;;;;;;;19.88;16.08;;;;;;;17.34;100.00;101168.59;5072094;28;20538;-51
2022/06/26 03:48:32;;;;;;;21.08;16.00;;;;;;;17.33;100.00;101174.88;5072343;28;20045;-52
2022/06/26 03:51:00;;;;;;;18.60;15.35;;;;;;;17.32;100.00;101181.19;5072517;28;20049;-48
2022/06/26 03:53:29;;;;;;;22.67;17.83;;;;;;;17.28;100.00;101171.81;5072149;28;20126;-49
2022/06/26 03:55:58;;;;;;;18.85;15.93;;;;;;;17.33;100.00;101177.53;5067331;28;20075;-50
2022/06/26 03:58:26;;;;;;;19.70;16.17;;;;;;;17.31;100.00;101190.13;5070477;28;20043;-52
2022/06/26 04:00:55;;;;;;;21.73;16.40;;;;;;;17.33;100.00;101189.03;5072085;28;20135;-50
2022/06/26 04:03:23;;;;;;;19.95;16.17;;;;;;;17.30;100.00;101191.97;5072424;28;20075;-53
2022/06/26 04:05:51;;;;;;;21.20;17.55;;;;;;;17.36;100.00;101198.53;5072318;28;20604;-53
2022/06/26 04:08:20;;;;;;;20.88;16.58;;;;;;;17.33;100.00;101206.75;5072384;28;20559;-48
2022/06/26 04:10:48;;;;;;;23.58;16.67;;;;;;;17.22;100.00;101205.09;5072218;28;20056;-48
2022/06/26 04:13:17;;;;;;;22.45;18.10;;;;;;;17.20;100.00;101196.38;5070248;28;20048;-54
2022/06/26 04:15:45;;;;;;;23.23;17.65;;;;;;;17.20;100.00;101213.16;5068636;28;20171;-50
2022/06/26 04:18:13;;;;;;;20.55;16.40;;;;;;;17.30;100.00;101229.16;5071708;28;20412;-49
2022/06/26 04:20:41;;;;;;;20.88;17.05;;;;;;;17.22;100.00;101229.84;5072161;28;20075;-49
2022/06/26 04:23:11;;;;;;;21.98;17.33;;;;;;;17.21;100.00;101222.00;5072141;28;20094;-48
2022/06/26 04:25:40;;;;;;;20.85;17.88;;;;;;;17.13;100.00;101227.97;5071929;28;20575;-54
2022/06/26 04:28:09;;;;;;;24.92;18.13;;;;;;;17.20;100.00;101231.75;5070291;28;20114;-47
2022/06/26 04:30:39;;;;;;;22.38;16.17;;;;;;;17.19;100.00;101221.28;5068916;28;20054;-50
2022/06/26 04:33:07;;;;;;;21.50;16.77;;;;;;;17.09;100.00;101223.91;5072000;28;20479;-47
2022/06/26 04:35:36;;;;;;;22.85;15.80;;;;;;;17.11;100.00;101218.44;5072300;28;20053;-49
2022/06/26 04:38:04;;;;;;;22.02;15.95;;;;;;;17.12;100.00;101217.47;5072175;28;20097;-54
2022/06/26 04:40:32;;;;;;;21.55;15.85;;;;;;;17.00;100.00;101214.91;5068918;28;20376;-50
2022/06/26 04:43:00;;;;;;;19.85;15.48;;;;;;;17.03;100.00;101225.28;5068820;28;20088;-50
2022/06/26 04:45:35;;;;;;;18.95;15.32;;;;;;;17.03;100.00;101227.09;5071182;28;20048;-48
2022/06/26 04:48:06;;;;;;;20.70;14.70;;;;;;;16.88;100.00;101218.59;5072334;28;20114;-50
2022/06/26 04:50:34;;;;;;;19.27;14.40;;;;;;;16.93;100.00;101223.53;5071929;28;20059;-50
2022/06/26 04:53:02;;;;;;;20.52;14.55;;;;;;;16.93;100.00;101219.06;5071945;28;20427;-50
2022/06/26 04:55:30;;;;;;;20.10;15.13;;;;;;;17.03;100.00;101219.97;5071894;28;20056;-51
2022/06/26 04:57:58;;;;;;;21.05;15.02;;;;;;;16.97;100.00;101227.63;5071858;28;20045;-49
2022/06/26 05:00:26;;;;;;;20.98;14.05;;;;;;;17.02;100.00;101233.38;5071982;28;20048;-49
2022/06/26 05:02:54;;;;;;;20.30;14.60;;;;;;;16.97;100.00;101243.56;5071682;28;20507;-51
2022/06/26 05:05:24;;;;;;;20.80;13.77;;;;;;;16.87;100.00;101256.75;5071630;28;20044;-48
2022/06/26 05:07:52;;;;;;;17.42;12.73;;;;;;;16.90;100.00;101260.00;5069945;28;20055;-48
2022/06/26 05:10:20;;;;;;;19.17;13.50;;;;;;;16.94;100.00;101267.75;5066718;28;20060;-49
2022/06/26 05:12:48;;;;;;;17.17;13.65;;;;;;;16.98;100.00;101271.81;5069553;28;20079;-53
2022/06/26 05:15:17;;;;;;;19.83;13.60;;;;;;;17.02;100.00;101271.41;5075491;28;20032;-49
2022/06/26 05:17:45;;;;;;;20.85;15.18;;;;;;;16.95;100.00;101269.44;5075294;28;20083;-48
2022/06/26 05:20:13;;;;;;;22.77;15.35;;;;;;;16.95;100.00;101272.91;5075456;28;20093;-48
2022/06/26 05:22:43;;;;;;;23.33;15.88;;;;;;;17.00;100.00;101273.38;5075416;28;20072;-52
2022/06/26 05:25:11;;;;;;;23.10;16.58;;;;;;;16.92;100.00;101273.19;5073694;28;20553;-51
2022/06/26 05:27:40;;;;;;;21.80;16.45;;;;;;;16.84;100.00;101286.25;5071968;28;20052;-47
2022/06/26 05:30:08;;;;;;;21.13;16.67;;;;;;;16.87;100.00;101292.13;5072533;28;20064;-47
2022/06/26 05:32:36;;;;;;;22.60;16.58;;;;;;;16.86;100.00;101285.13;5074522;28;20045;-48
2022/06/26 05:35:05;;;;;;;19.83;15.65;;;;;;;16.81;100.00;101286.47;5074829;28;20040;-53
2022/06/26 05:37:33;;;;;;;21.48;15.93;;;;;;;16.76;100.00;101291.38;5074870;28;20045;-53
2022/06/26 05:40:04;;;;;;;23.10;15.98;;;;;;;16.81;100.00;101283.81;5074928;28;20040;-53
2022/06/26 05:42:32;;;;;;;20.90;14.73;;;;;;;16.82;100.00;101289.00;5074820;28;20044;-52
2022/06/26 05:45:00;;;;;;;22.00;15.55;;;;;;;16.81;100.00;101302.41;5074870;28;20147;-51
2022/06/26 05:47:28;;;;;;;19.05;14.70;;;;;;;16.88;100.00;101303.59;5075003;28;20048;-53
2022/06/26 05:49:56;;;;;;;22.02;14.68;;;;;;;16.81;100.00;101305.94;5075126;28;20080;-56
2022/06/26 05:52:26;;;;;;;20.45;13.75;;;;;;;16.81;100.00;101305.06;5075008;28;20052;-55
2022/06/26 05:54:54;;;;;;;21.33;13.63;;;;;;;16.81;100.00;101299.75;5072076;28;20086;-51
2022/06/26 05:57:25;;;;;;;20.77;14.00;;;;;;;16.88;100.00;101301.78;5070852;28;20495;-54
2022/06/26 05:59:53;;;;;;;19.05;13.80;;;;;;;16.87;100.00;101315.19;5073640;28;20499;-55
2022/06/26 06:02:21;;;;;;;18.85;13.25;;;;;;;16.90;100.00;101313.13;5074847;28;20086;-54
2022/06/26 06:04:49;;;;;;;18.55;13.38;;;;;;;16.96;100.00;101318.91;5071134;28;20066;-47
2022/06/26 06:07:19;;;;;;;19.70;13.38;;;;;;;17.06;100.00;101318.00;5071765;28;20052;-54
2022/06/26 06:09:47;;;;;;;19.27;13.68;;;;;;;17.10;100.00;101323.03;5074655;28;20388;-47
2022/06/26 06:12:15;;;;;;;19.40;12.50;;;;;;;17.21;100.00;101325.66;5074252;28;20127;-54
2022/06/26 06:14:44;;;;;;;15.95;12.68;;;;;;;17.31;100.00;101333.66;5074085;28;20513;-46
2022/06/26 06:19:59;;;;;;;16.85;11.65;;;;;;;17.31;100.00;101339.81;5074432;28;20040;-56
2022/06/26 06:22:27;;;;;;;18.02;11.57;;;;;;;17.38;100.00;101338.31;5074791;28;20053;-56
2022/06/26 06:24:55;;;;;;;16.13;11.35;;;;;;;17.43;100.00;101348.56;5071256;28;20076;-50
2022/06/26 06:27:23;;;;;;;13.68;10.27;;;;;;;17.42;100.00;101346.03;5070205;28;20052;-52
2022/06/26 06:29:52;;;;;;;17.05;11.68;;;;;;;17.55;100.00;101354.63;5074413;28;20083;-54
2022/06/26 06:32:20;;;;;;;16.25;11.23;;;;;;;17.70;100.00;101353.28;5074153;28;20538;-51
2022/06/26 06:34:48;;;;;;;14.07;10.18;;;;;;;17.87;100.00;101364.25;5073835;28;20414;-53
2022/06/26 06:37:16;;;;;;;14.68;10.35;;;;;;;18.00;100.00;101356.09;5074046;28;20064;-49
2022/06/26 06:39:46;;;;;;;14.55;10.20;;;;;;;18.15;100.00;101356.53;5073939;28;20044;-52
2022/06/26 06:42:14;;;;;;;14.43;10.40;;;;;;;18.29;100.00;101365.94;5073947;28;20078;-54
2022/06/26 06:44:42;;;;;;;16.13;10.40;;;;;;;18.49;100.00;101370.31;5073709;28;20060;-47
2022/06/26 06:47:13;;;;;;;12.52;9.35;;;;;;;18.58;100.00;101373.94;5072308;28;20044;-49
2022/06/26 06:49:41;;;;;;;12.77;8.88;;;;;;;18.67;100.00;101377.59;5070418;28;20052;-54
2022/06/26 06:52:09;;;;;;;15.32;9.95;;;;;;;18.77;100.00;101380.28;5072371;28;20072;-56
2022/06/26 06:54:37;;;;;;;13.82;9.80;;;;;;;18.96;100.00;101377.59;5073214;28;20045;-56
2022/06/26 06:57:05;;;;;;;12.48;8.30;;;;;;;19.06;100.00;101373.13;5073506;28;20041;-49
2022/06/26 06:59:34;;;;;;;9.35;6.47;;;;;;;19.17;99.72;101369.47;5070567;28;20052;-50
2022/06/26 07:02:02;;;;;;;12.93;7.18;;;;;;;19.17;97.84;101381.94;5070958;28;20090;-50
2022/06/26 07:04:31;;;;;;;11.68;6.82;;;;;;;19.30;100.00;101381.63;5071560;28;20064;-52
2022/06/26 07:07:00;;;;;;;11.60;7.45;;;;;;;19.45;99.65;101380.19;5069682;28;20098;-58
2022/06/26 07:09:28;;;;;;;10.80;7.38;;;;;;;19.64;99.75;101367.78;5071927;28;20044;-48
2022/06/26 07:11:56;;;;;;;9.20;6.53;;;;;;;19.70;95.54;101364.50;5072550;28;20072;-50
2022/06/26 07:14:25;;;;;;;11.90;7.65;;;;;;;19.62;95.09;101369.72;5070299;28;20048;-48
2022/06/26 07:16:53;;;;;;;11.88;6.93;;;;;;;19.79;95.13;101376.13;5070591;28;20503;-56
2022/06/26 07:19:21;;;;;;;10.13;6.25;;;;;;;19.92;94.49;101374.81;5072996;28;20453;-55
2022/06/26 07:21:51;;;;;;;9.95;5.70;;;;;;;20.09;94.66;101381.19;5073030;28;20048;-56
2022/06/26 07:24:19;;;;;;;10.05;6.78;;;;;;;20.19;91.88;101381.16;5072964;28;20064;-56
2022/06/26 07:26:47;;;;;;;9.82;5.68;;;;;;;20.38;91.65;101388.19;5072767;28;20037;-56
2022/06/26 07:29:15;;;;;;;9.55;4.82;;;;;;;20.54;91.33;101395.50;5073085;28;20040;-56
2022/06/26 07:31:43;;;;;;;8.48;4.72;;;;;;;20.82;87.80;101397.28;5072749;28;20135;-47
2022/06/26 07:34:16;;;;;;;8.25;4.03;;;;;;;20.91;89.42;101401.72;5072697;28;20380;-56
2022/06/26 07:36:47;;;;;;;8.82;4.30;;;;;;;21.08;86.19;101416.06;5072127;28;20131;-50
2022/06/26 07:39:19;;;;;;;9.38;4.10;;;;;;;21.14;83.92;101417.28;5072622;28;20582;-55
2022/06/26 07:41:49;;;;;;;7.25;3.78;;;;;;;21.31;84.08;101420.91;5072773;28;20391;-54
2022/06/26 07:44:17;;;;;;;8.50;3.65;;;;;;;21.38;80.60;101420.13;5072771;28;20053;-51
2022/06/26 07:46:45;;;;;;;7.80;3.65;;;;;;;21.44;82.64;101430.19;5072491;28;20044;-52
2022/06/26 07:49:14;;;;;;;5.88;2.50;;;;;;;21.50;75.69;101427.88;5072915;28;20056;-51
2022/06/26 07:51:42;;;;;;;6.45;3.00;;;;;;;21.59;77.81;101421.63;5072736;28;20055;-55
2022/06/26 07:54:10;;;;;;;8.73;3.28;;;;;;;21.64;76.09;101418.44;5070461;28;20056;-48
2022/06/26 07:56:40;;;;;;;7.40;2.92;;;;;;;21.91;76.83;101426.28;5068180;28;20108;-55
2022/06/26 07:59:08;;;;;;;5.97;2.35;;;;;;;22.19;76.98;101430.59;5071353;28;20039;-54
2022/06/26 08:01:36;;;;;;;4.65;2.17;;;;;;;22.18;74.07;101428.91;5072217;28;20033;-55
2022/06/26 08:04:06;;;;;;;6.70;3.03;;;;;;;22.35;71.75;101427.16;5072158;28;20051;-55
2022/06/26 08:06:34;;;;;;;6.95;2.33;;;;;;;22.57;74.98;101428.38;5072253;28;20048;-54
2022/06/26 08:09:03;;;;;;;4.05;1.92;;;;;;;22.75;72.45;101430.91;5072097;28;20575;-52
2022/06/26 08:11:31;;;;;;;7.38;2.25;;;;;;;23.00;71.03;101431.75;5071862;28;20047;-50
2022/06/26 08:14:00;;;;;;;6.03;2.03;;;;;;;23.18;70.97;101433.44;5072361;28;20372;-49
2022/06/26 08:16:29;;;;;;;6.45;2.40;;;;;;;23.16;69.54;101446.19;5072402;28;20037;-51
2022/06/26 08:18:57;;;;;;;7.90;2.58;;;;;;;23.12;69.30;101449.22;5072184;28;20055;-51
2022/06/26 08:24:13;;;;;;;3.72;1.98;;;;;;;23.20;71.73;101436.81;5071521;28;20403;-48
2022/06/26 08:26:42;;;;;;;6.63;2.55;;;;;;;23.02;68.04;101435.09;5067118;28;20115;-51
2022/06/26 08:29:11;;;;;;;6.10;2.50;;;;;;;22.66;69.77;101431.88;5067644;28;20510;-50
2022/06/26 08:31:39;;;;;;;6.30;2.55;;;;;;;22.90;68.60;101441.81;5072099;28;20072;-49
2022/06/26 08:34:07;;;;;;;5.47;2.10;;;;;;;23.22;69.15;101440.16;5070114;28;20125;-49
2022/06/26 08:36:36;;;;;;;8.00;2.85;;;;;;;23.34;67.03;101443.31;5068619;28;20051;-50
2022/06/26 08:39:04;;;;;;;6.03;2.67;;;;;;;22.98;68.69;101452.53;5070263;28;20052;-57
2022/06/26 08:41:35;;;;;;;5.32;2.20;;;;;;;23.04;67.49;101456.38;5067422;28;20376;-56
2022/06/26 08:44:03;;;;;;;6.47;2.10;;;;;;;22.90;66.01;101458.72;5069790;28;20098;-57
2022/06/26 08:46:36;;;;;;;4.97;2.03;;;;;;;23.05;65.61;101444.66;5072875;28;20040;-56
2022/06/26 08:49:10;;;;;;;4.75;2.15;;;;;;;23.16;66.82;101448.88;5076087;28;20145;-54
2022/06/26 08:51:41;;;;;;;6.78;2.10;;;;;;;23.27;66.71;101460.13;5072682;28;20052;-56
2022/06/26 08:54:13;;;;;;;5.63;2.05;;;;;;;23.11;65.33;101471.66;5073152;28;20052;-52
2022/06/26 08:56:43;;;;;;;6.78;2.85;;;;;;;23.26;63.91;101462.94;5075768;28;20048;-46
2022/06/26 08:59:12;;;;;;;4.85;2.30;;;;;;;22.90;66.46;101468.63;5075925;28;20106;-54
2022/06/26 09:01:43;;;;;;;5.32;2.50;;;;;;;22.94;68.02;101469.97;5075947;28;20055;-49
2022/06/26 09:04:12;;;;;;;6.38;2.47;;;;;;;22.65;68.19;101470.44;5075709;28;20126;-47
2022/06/26 09:06:42;;;;;;;4.50;2.00;;;;;;;22.89;69.18;101472.28;5075627;28;20033;-56
2022/06/26 09:09:14;;;;;;;5.53;2.20;;;;;;;23.09;67.20;101473.66;5075471;28;20055;-57
2022/06/26 09:11:42;;;;;;;5.97;2.30;;;;;;;23.18;64.38;101471.00;5075509;28;20074;-55
2022/06/26 09:14:11;;;;;;;6.75;2.10;;;;;;;23.25;64.40;101480.91;5075490;28;20072;-53
2022/06/26 09:16:44;;;;;;;6.05;2.70;;;;;;;22.91;64.81;101481.03;5075395;28;20036;-49
2022/06/26 09:19:14;;;;;;;6.57;2.75;;;;;;;23.17;64.70;101482.75;5074140;28;20051;-53
2022/06/26 09:21:42;;;;;;;5.40;2.22;;;;;;;23.00;67.36;101488.09;5073847;28;20132;-49
2022/06/26 09:24:11;;;;;;;6.90;2.33;;;;;;;23.24;65.15;101481.91;5071697;28;20048;-54
2022/06/26 09:26:40;;;;;;;6.50;2.20;;;;;;;22.99;65.55;101478.34;5074472;28;20561;-55
2022/06/26 09:29:11;;;;;;;5.78;2.28;;;;;;;23.11;64.88;101482.38;5071175;28;20135;-49
2022/06/26 09:31:41;;;;;;;6.50;2.30;;;;;;;23.15;65.16;101471.34;5072460;28;20078;-51
2022/06/26 09:34:21;;;;;;;7.10;2.67;;;;;;;22.99;63.60;101467.63;5075086;28;20389;-55
2022/06/26 09:36:57;;;;;;;5.50;2.38;;;;;;;22.98;62.82;101471.31;5074634;28;20055;-54
2022/06/26 09:39:25;;;;;;;6.32;2.22;;;;;;;22.86;64.37;101472.63;5074197;28;20499;-51
2022/06/26 09:41:53;;;;;;;5.70;2.17;;;;;;;22.91;66.37;101465.78;5070374;28;20462;-50
2022/06/26 09:44:22;;;;;;;7.10;2.90;;;;;;;22.98;65.89;101467.78;5061102;28;20127;-51
2022/06/26 09:46:51;;;;;;;7.45;2.70;;;;;;;23.15;65.22;101472.19;5053123;28;20045;-54
2022/06/26 09:49:21;;;;;;;7.20;2.20;;;;;;;23.18;67.49;101471.00;5050961;28;20078;-54
2022/06/26 09:51:49;;;;;;;5.80;2.42;;;;;;;23.27;67.96;101467.31;5054116;28;20044;-55
2022/06/26 09:54:18;;;;;;;11.18;6.63;;;;;;;22.73;66.15;101467.78;5054711;28;20053;-50
2022/06/26 09:56:46;;;;;;;18.17;11.45;;;;;;;23.05;69.32;101460.75;5054544;28;20041;-52
2022/06/26 09:59:15;;;;;;;11.27;8.15;;;;;;;23.23;67.25;101472.19;5053823;28;20044;-54
2022/06/26 10:07:17;;;;;;;6.55;2.63;;;;;;;22.74;66.52;101470.28;5054456;28;20115;-55
2022/06/26 10:09:46;;;;;;;6.72;3.20;;;;;;;22.68;67.64;101472.78;5052501;28;20072;-50
2022/06/26 10:12:14;;;;;;;7.10;3.35;;;;;;;22.93;68.09;101479.00;5050369;28;20109;-55
2022/06/26 10:14:46;;;;;;;8.65;3.13;;;;;;;22.98;66.84;101482.03;5052780;28;20060;-56
2022/06/26 10:17:27;;;;;;;6.03;2.50;;;;;;;22.89;66.11;101488.38;5051028;28;20052;-52
2022/06/26 10:20:01;;;;;;;7.63;2.70;;;;;;;22.89;66.25;101491.94;5051687;28;20060;-48
2022/06/26 10:22:38;;;;;;;5.82;2.33;;;;;;;23.16;64.83;101500.69;5054423;28;20102;-56
2022/06/26 10:25:08;;;;;;;5.88;2.20;;;;;;;23.00;63.69;101490.75;5054163;28;20075;-51
2022/06/26 10:27:39;;;;;;;7.38;2.75;;;;;;;23.00;64.31;101489.91;5053901;28;20045;-50
2022/06/26 10:30:10;;;;;;;6.78;2.70;;;;;;;22.94;63.19;101484.19;5054030;28;20055;-55
2022/06/26 10:32:38;;;;;;;7.13;2.60;;;;;;;22.94;63.88;101491.41;5054406;28;20037;-50
2022/06/26 10:35:10;;;;;;;7.38;2.70;;;;;;;23.14;63.68;101497.34;5054101;28;20492;-51
2022/06/26 10:37:45;;;;;;;11.13;5.40;;;;;;;22.94;66.42;101502.16;5053801;28;20041;-51
2022/06/26 10:42:52;;;;;;;8.13;3.75;;;;;;;22.84;67.32;101512.16;5047220;28;20060;-55
2022/06/26 10:43:04;;;;;;;6.68;3.03;;;;;;;22.77;65.96;101515.53;5051816;28;20037;-49
2022/06/26 10:45:34;;;;;;;8.75;3.17;;;;;;;22.69;68.88;101512.00;5053601;28;20170;-51
2022/06/26 10:48:06;;;;;;;8.10;3.30;;;;;;;22.59;68.73;101498.72;5054232;28;20049;-48
2022/06/26 10:50:38;;;;;;;9.80;3.90;;;;;;;22.52;69.67;101505.72;5054048;28;20457;-47
2022/06/26 10:53:18;;;;;;;7.55;3.42;;;;;;;22.48;70.63;101518.63;5053578;28;20040;-55
2022/06/26 10:55:48;;;;;;;6.55;3.30;;;;;;;22.20;69.51;101515.31;5053616;28;20076;-52
2022/06/26 10:58:21;;;;;;;8.10;3.40;;;;;;;22.20;70.37;101521.50;5053503;28;20057;-51
2022/06/26 11:00:52;;;;;;;7.18;3.13;;;;;;;22.40;68.06;101515.91;5051557;28;20119;-53
2022/06/26 11:03:21;;;;;;;7.63;3.30;;;;;;;22.62;69.67;101509.13;5049793;28;20053;-49
2022/06/26 11:05:55;;;;;;;8.40;3.10;;;;;;;22.64;69.44;101517.84;5051352;28;20052;-49
2022/06/26 11:08:28;;;;;;;9.32;3.17;;;;;;;22.81;68.31;101516.03;5053483;28;20380;-54
2022/06/26 11:10:58;;;;;;;;;;;;;;;22.87;66.57;101522.59;5052693;28;20095;-54
2022/06/26 11:13:26;;;;;;;6.95;2.70;;;;;;;22.77;68.29;101517.38;5053638;28;20792;-54
2022/06/26 11:15:54;;;;;;;8.18;2.80;;;;;;;22.75;68.22;101511.31;5053048;28;20041;-45
2022/06/26 11:18:22;;;;;;;8.48;2.85;;;;;;;22.83;68.37;101511.34;5052691;28;20132;-46
2022/06/26 11:20:53;;;;;;;8.75;2.95;;;;;;;22.98;70.72;101516.06;5050232;28;20389;-48
2022/06/26 11:23:25;;;;;;;6.32;3.00;;;;;;;23.03;68.17;101516.38;5048916;28;20053;-48
2022/06/26 11:25:56;;;;;;;7.75;3.25;;;;;;;22.65;69.82;101519.53;5051743;28;20049;-54
2022/06/26 11:28:31;;;;;;;7.78;3.35;;;;;;;22.57;73.62;101525.69;5052628;28;20063;-45
2022/06/26 11:31:01;;;;;;;8.07;3.42;;;;;;;22.58;73.28;101523.84;5052247;28;20048;-54
2022/06/26 11:33:31;;;;;;;6.45;2.97;;;;;;;22.06;73.08;101528.28;5052294;28;20041;-52
2022/06/26 11:36:03;;;;;;;7.32;2.97;;;;;;;21.90;73.81;101526.34;5048889;28;20056;-51
2022/06/26 11:38:33;;;;;;;7.23;3.37;;;;;;;21.98;75.58;101522.91;5049825;28;20377;-54